Time;durP1;ratioP1;P1;durP2;ratioP2;P2;SDS_P1;SDS_P2;PMS_P1;PMS_P2;Temp;Humidity;BMP_temperature;BMP_pressure;BME280_temperature;BME280_humidity;BME280_pressure;Samples;Min_cycle;Max_cycle;Signal;HPM_P1;HPM_P2
2020/12/23 00:00:52;;;;;;;13.17;7.70;;;11.80;99.90;;;;;;4993718;28;20224;-74
2020/12/23 00:03:18;;;;;;;14.97;8.60;;;11.80;99.90;;;;;;4993522;28;20175;-74
2020/12/23 00:05:43;;;;;;;10.40;8.10;;;11.80;99.90;;;;;;4993826;28;20592;-76
2020/12/23 00:08:09;;;;;;;17.93;9.60;;;11.70;99.90;;;;;;4993661;28;20168;-74
2020/12/23 00:10:35;;;;;;;15.77;9.80;;;11.80;99.90;;;;;;4993585;28;20253;-75
2020/12/23 00:13:01;;;;;;;16.27;10.20;;;11.90;99.90;;;;;;4993305;28;20191;-75
2020/12/23 00:15:26;;;;;;;13.30;7.60;;;11.90;99.90;;;;;;4993717;28;20205;-75
2020/12/23 00:17:52;;;;;;;18.00;9.57;;;11.90;99.90;;;;;;4993777;28;20403;-75
2020/12/23 00:20:18;;;;;;;17.67;8.93;;;11.80;99.90;;;;;;4993801;28;20212;-73
2020/12/23 00:22:43;;;;;;;14.63;9.20;;;11.60;99.90;;;;;;4993445;28;20183;-74
2020/12/23 00:25:09;;;;;;;10.13;7.37;;;11.40;99.90;;;;;;4993863;28;20179;-75
2020/12/23 00:27:34;;;;;;;19.70;7.27;;;11.30;99.90;;;;;;4993603;28;20254;-74
2020/12/23 00:30:00;;;;;;;13.43;7.87;;;11.50;99.90;;;;;;4993857;28;20189;-75
2020/12/23 00:32:29;;;;;;;15.30;8.00;;;11.60;99.90;;;;;;4993292;28;20195;-73
2020/12/23 00:34:54;;;;;;;13.80;8.25;;;11.50;99.90;;;;;;4993680;28;20183;-74
2020/12/23 00:37:20;;;;;;;12.33;8.47;;;11.50;99.90;;;;;;4993547;28;20695;-74
2020/12/23 00:39:46;;;;;;;15.50;8.90;;;11.50;99.90;;;;;;4993607;28;20195;-75
2020/12/23 00:42:11;;;;;;;11.90;8.80;;;11.50;99.90;;;;;;4993060;28;20199;-74
2020/12/23 00:44:37;;;;;;;14.10;8.60;;;11.60;99.90;;;;;;4993658;28;20242;-75
2020/12/23 00:47:03;;;;;;;17.03;9.00;;;11.50;99.90;;;;;;4993506;28;20263;-74
2020/12/23 00:49:28;;;;;;;22.13;8.53;;;11.60;99.90;;;;;;4993453;28;20544;-75
2020/12/23 00:51:54;;;;;;;15.57;9.53;;;11.80;99.90;;;;;;4993068;28;20214;-75
2020/12/23 00:54:19;;;;;;;17.03;9.37;;;11.80;99.90;;;;;;4992216;28;20183;-74
2020/12/23 00:56:45;;;;;;;18.50;10.80;;;11.80;99.90;;;;;;4993459;28;20187;-75
2020/12/23 00:59:11;;;;;;;14.27;9.37;;;11.80;99.90;;;;;;4993318;28;20567;-74
2020/12/23 01:01:37;;;;;;;13.87;9.60;;;11.80;99.90;;;;;;4993118;28;20210;-74
2020/12/23 01:04:02;;;;;;;17.77;10.35;;;11.80;99.90;;;;;;4993009;28;20220;-75
2020/12/23 01:06:28;;;;;;;15.23;9.20;;;11.80;99.90;;;;;;4993400;28;20652;-74
2020/12/23 01:08:54;;;;;;;12.07;10.30;;;11.80;99.90;;;;;;4993233;28;20429;-74
2020/12/23 01:11:20;;;;;;;14.30;11.07;;;11.90;99.90;;;;;;4992877;28;20211;-75
2020/12/23 01:13:46;;;;;;;15.50;10.90;;;11.90;99.90;;;;;;4992950;28;20536;-74
2020/12/23 01:16:11;;;;;;;12.50;10.10;;;11.90;99.90;;;;;;4993343;28;20266;-75
2020/12/23 01:18:37;;;;;;;14.97;9.67;;;11.80;99.90;;;;;;4993352;28;20203;-74
2020/12/23 01:21:03;;;;;;;13.13;9.53;;;11.80;99.90;;;;;;4996704;28;20210;-75
2020/12/23 01:23:28;;;;;;;11.50;10.00;;;11.80;99.90;;;;;;4996287;28;20168;-74
2020/12/23 01:25:55;;;;;;;11.87;8.97;;;11.80;99.90;;;;;;4996624;28;20527;-73
2020/12/23 01:28:21;;;;;;;9.77;8.05;;;11.80;99.90;;;;;;4996476;28;20195;-76
2020/12/23 01:30:47;;;;;;;13.30;9.05;;;11.80;99.90;;;;;;4996632;28;20574;-76
2020/12/23 01:33:13;;;;;;;11.73;7.90;;;11.80;99.90;;;;;;4996090;28;20190;-74
2020/12/23 01:35:39;;;;;;;8.63;7.57;;;11.80;99.90;;;;;;4996576;28;20180;-75
2020/12/23 01:38:05;;;;;;;8.50;6.83;;;11.80;99.90;;;;;;4996620;28;20229;-75
2020/12/23 01:40:31;;;;;;;9.80;7.53;;;11.80;99.90;;;;;;4996450;28;20227;-75
2020/12/23 01:42:57;;;;;;;13.38;7.75;;;11.90;99.90;;;;;;4996167;28;20186;-75
2020/12/23 01:45:23;;;;;;;12.43;7.10;;;11.90;99.90;;;;;;4996321;28;20183;-75
2020/12/23 01:47:48;;;;;;;10.73;7.23;;;11.90;99.90;;;;;;4996273;28;20423;-75
2020/12/23 01:50:15;;;;;;;7.60;6.27;;;11.80;99.90;;;;;;4996155;28;20179;-75
2020/12/23 01:52:41;;;;;;;6.68;5.40;;;11.80;99.90;;;;;;4995823;28;20186;-74
2020/12/23 01:55:11;;;;;;;11.95;5.50;;;11.80;99.90;;;;;;4996059;28;20491;-76
2020/12/23 01:57:37;;;;;;;6.20;5.32;;;11.90;99.90;;;;;;4995940;28;20180;-76
2020/12/23 02:00:05;;;;;;;7.13;5.43;;;11.90;99.90;;;;;;4996012;28;20297;-74
2020/12/23 02:02:36;;;;;;;11.05;5.25;;;11.90;99.90;;;;;;4995516;28;20207;-74
2020/12/23 02:05:07;;;;;;;5.57;3.65;;;11.90;99.90;;;;;;4996254;28;20652;-76
2020/12/23 02:07:33;;;;;;;4.45;3.78;;;11.70;99.90;;;;;;4995706;28;20179;-74
2020/12/23 02:10:01;;;;;;;4.10;3.70;;;11.60;99.90;;;;;;4995700;28;20183;-74
2020/12/23 02:12:27;;;;;;;3.60;3.30;;;11.70;99.90;;;;;;4995282;28;20204;-75
2020/12/23 02:14:58;;;;;;;10.73;3.53;;;11.70;99.90;;;;;;4995875;28;20502;-74
2020/12/23 02:17:27;;;;;;;7.13;4.03;;;11.70;99.90;;;;;;4995553;28;20519;-75
2020/12/23 02:19:53;;;;;;;3.20;2.90;;;11.80;99.90;;;;;;4995466;28;20209;-76
2020/12/23 02:22:19;;;;;;;8.45;4.75;;;11.90;99.90;;;;;;4995180;28;20195;-75
2020/12/23 02:24:52;;;;;;;3.92;3.10;;;11.90;99.90;;;;;;4995765;28;20233;-75
2020/12/23 02:27:22;;;;;;;3.63;2.92;;;12.00;99.90;;;;;;4995562;28;20706;-75
2020/12/23 02:29:49;;;;;;;5.28;3.05;;;12.10;99.90;;;;;;4995226;28;20203;-76
2020/12/23 02:32:15;;;;;;;3.53;3.20;;;12.10;99.90;;;;;;4994365;28;20196;-75
2020/12/23 02:34:41;;;;;;;4.40;3.70;;;12.00;99.90;;;;;;4995580;28;20191;-75
2020/12/23 02:37:09;;;;;;;5.20;4.03;;;11.90;99.90;;;;;;4995226;28;20395;-74
2020/12/23 02:39:35;;;;;;;5.03;4.05;;;11.90;99.90;;;;;;4995112;28;20597;-74
2020/12/23 02:42:02;;;;;;;4.57;3.80;;;11.80;99.90;;;;;;4994728;28;20206;-75
2020/12/23 02:44:28;;;;;;;6.90;4.63;;;11.70;99.90;;;;;;4995201;28;20548;-75
2020/12/23 02:46:59;;;;;;;4.17;3.77;;;11.70;99.90;;;;;;4995137;28;20184;-75
2020/12/23 02:49:26;;;;;;;8.35;4.03;;;11.60;99.90;;;;;;4995035;28;20176;-75
2020/12/23 02:51:52;;;;;;;5.32;3.58;;;11.60;99.90;;;;;;4994764;28;20563;-74
2020/12/23 02:54:18;;;;;;;4.25;2.50;;;11.50;99.90;;;;;;4995024;28;20179;-75
2020/12/23 02:56:44;;;;;;;3.10;2.78;;;11.50;99.90;;;;;;4995132;28;20283;-74
2020/12/23 02:59:10;;;;;;;2.97;2.67;;;11.50;99.90;;;;;;4994916;28;20285;-75
2020/12/23 03:01:36;;;;;;;5.23;3.10;;;11.40;99.90;;;;;;4994708;28;20195;-74
2020/12/23 03:04:02;;;;;;;4.27;2.37;;;11.40;99.90;;;;;;4994320;28;20419;-75
2020/12/23 03:06:28;;;;;;;3.97;2.20;;;11.40;99.90;;;;;;4994742;28;20179;-75
2020/12/23 03:08:54;;;;;;;6.07;2.27;;;11.40;99.90;;;;;;4994733;28;20183;-75
2020/12/23 03:11:19;;;;;;;4.30;2.40;;;11.40;99.90;;;;;;4994560;28;20688;-74
2020/12/23 03:13:45;;;;;;;2.70;2.50;;;11.40;99.90;;;;;;4994122;28;20421;-75
2020/12/23 03:16:11;;;;;;;3.30;2.20;;;11.40;99.90;;;;;;4994440;28;20179;-75
2020/12/23 03:18:39;;;;;;;4.50;2.13;;;11.40;99.90;;;;;;4994554;28;20211;-75
2020/12/23 03:21:05;;;;;;;5.20;2.80;;;11.30;99.90;;;;;;4994569;28;20214;-74
2020/12/23 03:23:31;;;;;;;6.18;2.30;;;11.30;99.90;;;;;;4994347;28;20662;-74
2020/12/23 03:25:56;;;;;;;4.37;1.93;;;11.40;99.90;;;;;;4994464;28;20297;-74
2020/12/23 03:28:22;;;;;;;4.57;1.90;;;11.40;99.90;;;;;;4994305;28;20349;-74
2020/12/23 03:30:47;;;;;;;2.50;1.83;;;11.30;99.90;;;;;;4994254;28;20289;-74
2020/12/23 03:33:13;;;;;;;2.30;1.87;;;11.30;99.90;;;;;;4993993;28;20179;-74
2020/12/23 03:35:38;;;;;;;4.53;1.77;;;11.30;99.90;;;;;;4994305;28;20179;-73
2020/12/23 03:38:04;;;;;;;2.87;1.83;;;11.30;99.90;;;;;;4994109;28;20606;-74
2020/12/23 03:40:29;;;;;;;2.30;1.50;;;11.30;99.90;;;;;;4994205;28;20215;-74
2020/12/23 03:42:55;;;;;;;1.73;1.47;;;11.20;99.90;;;;;;4993691;28;20250;-74
2020/12/23 03:45:21;;;;;;;3.40;1.30;;;11.30;99.90;;;;;;4994277;28;20180;-75
2020/12/23 03:47:46;;;;;;;3.83;2.07;;;11.20;99.90;;;;;;4994132;28;20176;-74
2020/12/23 03:50:12;;;;;;;3.77;1.60;;;11.30;99.90;;;;;;4994005;28;20190;-74
2020/12/23 03:52:37;;;;;;;2.37;1.20;;;11.20;99.90;;;;;;4993649;28;20180;-74
2020/12/23 03:55:03;;;;;;;4.43;1.30;;;11.20;99.90;;;;;;4993959;28;20584;-74
2020/12/23 03:57:29;;;;;;;4.40;1.87;;;11.20;99.90;;;;;;4993972;28;20199;-75
2020/12/23 03:59:54;;;;;;;2.73;1.40;;;11.20;99.90;;;;;;4993748;28;20455;-75
2020/12/23 04:02:20;;;;;;;2.33;1.50;;;11.20;99.90;;;;;;4993286;28;20195;-75
2020/12/23 04:04:45;;;;;;;6.70;1.90;;;11.20;99.90;;;;;;4993845;28;20531;-74
2020/12/23 04:07:11;;;;;;;3.40;1.43;;;11.20;99.90;;;;;;4993825;28;20190;-74
2020/12/23 04:09:37;;;;;;;7.90;1.57;;;11.20;99.90;;;;;;4993778;28;20266;-74
2020/12/23 04:12:02;;;;;;;2.50;1.30;;;11.30;99.90;;;;;;4993326;28;20207;-74
2020/12/23 04:14:28;;;;;;;1.50;1.30;;;11.30;99.90;;;;;;4993642;28;20171;-74
2020/12/23 04:16:53;;;;;;;5.40;2.00;;;11.30;99.90;;;;;;4993705;28;20190;-73
2020/12/23 04:19:19;;;;;;;1.57;1.20;;;11.30;99.90;;;;;;4993662;28;20722;-75
2020/12/23 04:21:45;;;;;;;2.40;1.43;;;11.20;99.90;;;;;;4993642;28;20197;-76
2020/12/23 04:24:10;;;;;;;1.40;1.10;;;11.20;99.90;;;;;;4993437;28;20402;-74
2020/12/23 04:26:36;;;;;;;1.70;1.23;;;11.30;99.90;;;;;;4993468;28;20402;-74
2020/12/23 04:29:02;;;;;;;3.63;1.80;;;11.20;99.90;;;;;;4993467;28;20277;-74
2020/12/23 04:31:27;;;;;;;2.90;1.13;;;11.20;99.90;;;;;;4993738;28;20638;-74
2020/12/23 04:33:53;;;;;;;2.17;1.23;;;11.20;99.90;;;;;;4993492;28;20632;-74
2020/12/23 04:36:18;;;;;;;5.10;1.80;;;11.20;99.90;;;;;;4993703;28;20267;-75
2020/12/23 04:38:44;;;;;;;2.70;1.20;;;11.30;99.90;;;;;;4993389;28;20222;-75
2020/12/23 04:41:10;;;;;;;1.60;1.50;;;11.20;99.90;;;;;;4993565;28;20739;-74
2020/12/23 04:43:36;;;;;;;1.50;1.37;;;11.20;99.90;;;;;;4993276;28;20184;-75
2020/12/23 04:46:02;;;;;;;1.92;1.20;;;11.20;99.90;;;;;;4993529;28;20188;-74
2020/12/23 04:48:31;;;;;;;1.10;1.00;;;11.20;99.90;;;;;;4993427;28;20263;-74
2020/12/23 04:51:00;;;;;;;3.50;1.20;;;11.20;99.90;;;;;;4993221;28;20187;-74
2020/12/23 04:53:25;;;;;;;1.50;1.25;;;11.20;99.90;;;;;;4993177;28;20175;-74
2020/12/23 04:55:51;;;;;;;1.13;1.00;;;11.20;99.90;;;;;;4997175;28;20175;-74
2020/12/23 04:58:17;;;;;;;3.17;1.30;;;11.20;99.90;;;;;;4997023;28;20175;-75
2020/12/23 05:00:43;;;;;;;2.13;1.10;;;11.20;99.90;;;;;;4996950;28;20699;-74
2020/12/23 05:03:08;;;;;;;1.10;1.00;;;11.20;99.90;;;;;;4996667;28;20180;-74
2020/12/23 05:05:34;;;;;;;1.97;1.00;;;11.30;99.90;;;;;;4997084;28;20176;-74
2020/12/23 05:07:59;;;;;;;1.17;1.07;;;11.20;99.90;;;;;;4997065;28;20172;-74
2020/12/23 05:10:28;;;;;;;1.70;0.90;;;11.30;99.90;;;;;;4996809;28;20179;-74
2020/12/23 05:12:56;;;;;;;1.38;1.27;;;11.30;99.90;;;;;;4996337;28;20195;-73
2020/12/23 05:15:22;;;;;;;1.08;0.98;;;11.20;99.90;;;;;;4996783;28;20187;-75
2020/12/23 05:17:50;;;;;;;2.38;0.90;;;11.20;99.90;;;;;;4996760;28;20179;-75
2020/12/23 05:20:16;;;;;;;2.55;0.95;;;11.20;99.90;;;;;;4996672;28;20207;-73
2020/12/23 05:22:47;;;;;;;1.20;1.10;;;11.20;99.90;;;;;;4996466;28;20222;-75
2020/12/23 05:25:13;;;;;;;1.38;1.00;;;11.30;99.90;;;;;;4996625;28;20188;-75
2020/12/23 05:27:41;;;;;;;4.13;1.20;;;11.30;99.90;;;;;;4996487;28;20207;-74
2020/12/23 05:30:06;;;;;;;1.80;1.10;;;11.40;99.90;;;;;;4996726;28;20183;-73
2020/12/23 05:32:36;;;;;;;3.53;1.30;;;11.40;99.90;;;;;;4996181;28;20203;-75
2020/12/23 05:35:02;;;;;;;3.45;1.25;;;11.40;99.90;;;;;;4996501;28;20182;-73
2020/12/23 05:37:28;;;;;;;2.60;1.20;;;11.40;99.90;;;;;;5001503;28;20546;-74
2020/12/23 05:39:53;;;;;;;1.80;1.10;;;11.40;99.90;;;;;;5015699;28;20217;-73
2020/12/23 05:42:20;;;;;;;1.10;1.00;;;11.50;99.90;;;;;;5015576;28;20195;-75
2020/12/23 05:44:52;;;;;;;1.17;1.05;;;11.50;99.90;;;;;;5015877;28;20171;-75
2020/12/23 05:47:22;;;;;;;3.72;1.20;;;11.50;99.90;;;;;;5015916;28;20178;-74
2020/12/23 05:49:50;;;;;;;1.20;1.10;;;11.40;99.90;;;;;;5015992;28;20268;-74
2020/12/23 05:52:16;;;;;;;1.55;1.25;;;11.40;99.90;;;;;;5015562;28;20285;-74
2020/12/23 05:54:43;;;;;;;4.47;1.45;;;11.40;99.90;;;;;;5015782;28;20190;-74
2020/12/23 05:57:09;;;;;;;4.80;1.88;;;11.30;99.90;;;;;;5015699;28;20191;-75
2020/12/23 05:59:34;;;;;;;2.13;1.30;;;11.30;99.90;;;;;;5015531;28;20568;-75
2020/12/23 06:02:02;;;;;;;2.50;1.30;;;11.20;99.90;;;;;;5015191;28;20195;-75
2020/12/23 06:04:29;;;;;;;2.80;1.50;;;11.20;99.90;;;;;;5015545;28;20174;-74
2020/12/23 06:06:57;;;;;;;2.53;1.63;;;11.20;99.90;;;;;;5015432;28;20582;-73
2020/12/23 06:09:34;;;;;;;2.85;1.70;;;11.20;99.90;;;;;;5015392;28;20518;-74
2020/12/23 06:12:19;;;;;;;2.00;1.80;;;11.20;99.90;;;;;;5015025;28;20195;-73
2020/12/23 06:14:56;;;;;;;1.52;1.42;;;11.10;99.90;;;;;;5014086;28;20797;-75
2020/12/23 06:17:26;;;;;;;2.20;1.67;;;11.20;99.90;;;;;;5015224;28;20213;-75
2020/12/23 06:19:57;;;;;;;1.83;1.25;;;11.20;99.90;;;;;;5015130;28;20206;-75
2020/12/23 06:22:24;;;;;;;1.60;1.45;;;11.30;99.90;;;;;;5014780;28;20706;-75
2020/12/23 06:24:50;;;;;;;2.05;1.30;;;11.20;99.90;;;;;;5015160;28;20171;-74
2020/12/23 06:27:16;;;;;;;2.03;1.50;;;11.20;99.90;;;;;;5014994;28;20225;-75
2020/12/23 06:29:43;;;;;;;2.80;1.57;;;11.30;99.90;;;;;;5014450;28;20195;-74
2020/12/23 06:32:21;;;;;;;2.50;1.90;;;11.30;99.90;;;;;;5014684;28;20195;-75
2020/12/23 06:34:57;;;;;;;2.03;1.30;;;11.30;99.90;;;;;;5015198;28;20228;-74
2020/12/23 06:37:25;;;;;;;4.30;1.35;;;11.30;99.90;;;;;;5015119;28;20183;-73
2020/12/23 06:39:52;;;;;;;1.95;1.48;;;11.30;99.90;;;;;;5014799;28;20225;-76
2020/12/23 06:42:20;;;;;;;3.35;1.30;;;11.30;99.90;;;;;;5013294;28;20225;-75
2020/12/23 06:44:48;;;;;;;1.13;1.00;;;11.30;99.90;;;;;;5014888;28;20178;-75
2020/12/23 06:47:25;;;;;;;1.33;1.20;;;11.30;99.90;;;;;;5014805;28;20175;-75
2020/12/23 06:50:05;;;;;;;4.25;1.40;;;11.40;99.90;;;;;;5014602;28;20182;-75
2020/12/23 06:52:33;;;;;;;2.28;1.15;;;11.40;99.90;;;;;;5014413;28;20571;-74
2020/12/23 06:55:16;;;;;;;1.88;1.20;;;11.40;99.90;;;;;;5014536;28;20187;-74
2020/12/23 06:57:44;;;;;;;1.42;1.02;;;11.40;99.90;;;;;;5014526;28;20175;-74
2020/12/23 07:00:23;;;;;;;1.88;1.45;;;11.40;99.90;;;;;;5014350;28;20806;-75
2020/12/23 07:02:51;;;;;;;5.32;1.80;;;11.40;99.90;;;;;;5014229;28;20584;-74
2020/12/23 07:05:23;;;;;;;1.60;1.50;;;11.50;99.90;;;;;;5014362;28;20183;-75
2020/12/23 07:07:52;;;;;;;2.47;1.65;;;11.50;99.90;;;;;;5014173;28;20171;-75
2020/12/23 07:10:23;;;;;;;2.03;1.65;;;11.40;99.90;;;;;;5014141;28;20330;-75
2020/12/23 07:12:52;;;;;;;1.63;1.52;;;11.30;99.90;;;;;;5014040;28;20192;-75
2020/12/23 07:15:25;;;;;;;2.35;1.40;;;11.30;99.90;;;;;;5006038;28;20180;-75
2020/12/23 07:18:03;;;;;;;2.97;1.42;;;11.30;99.90;;;;;;5000760;28;20184;-75
2020/12/23 07:20:33;;;;;;;2.50;1.70;;;11.30;99.90;;;;;;5003773;28;20557;-75
2020/12/23 07:23:05;;;;;;;3.05;1.90;;;11.30;99.90;;;;;;5002999;28;20257;-75
2020/12/23 07:25:35;;;;;;;2.47;1.95;;;11.40;99.90;;;;;;5004588;28;20194;-74
2020/12/23 07:28:03;;;;;;;6.00;2.53;;;11.40;99.90;;;;;;5004473;28;20530;-75
2020/12/23 07:30:29;;;;;;;2.30;1.95;;;11.40;99.90;;;;;;5003111;28;20202;-74
2020/12/23 07:33:08;;;;;;;3.60;2.17;;;11.30;99.90;;;;;;5004087;28;20179;-74
2020/12/23 07:35:35;;;;;;;3.28;2.20;;;11.40;99.90;;;;;;5006785;28;20182;-72
2020/12/23 07:38:04;;;;;;;4.10;2.40;;;11.40;99.90;;;;;;5000319;28;20274;-74
2020/12/23 07:40:31;;;;;;;3.80;2.80;;;11.40;99.90;;;;;;5001881;28;20218;-74
2020/12/23 07:42:57;;;;;;;5.60;2.33;;;11.40;99.90;;;;;;5002593;28;20177;-74
2020/12/23 07:45:25;;;;;;;3.60;2.47;;;11.30;99.90;;;;;;5006084;28;20178;-74
2020/12/23 07:47:55;;;;;;;3.50;2.60;;;11.30;99.90;;;;;;5004134;28;20190;-75
2020/12/23 07:50:22;;;;;;;4.40;2.55;;;11.30;99.90;;;;;;5034290;28;20181;-74
2020/12/23 07:52:48;;;;;;;3.67;2.22;;;11.30;99.90;;;;;;5003348;28;20675;-73
2020/12/23 07:55:21;;;;;;;5.23;2.40;;;11.30;99.90;;;;;;5004319;28;20274;-73
2020/12/23 07:57:51;;;;;;;4.65;2.85;;;11.30;99.90;;;;;;5002034;28;20940;-75
2020/12/23 08:00:17;;;;;;;4.18;2.63;;;11.30;99.90;;;;;;5004398;28;20207;-73
2020/12/23 08:02:43;;;;;;;3.35;2.08;;;11.30;99.90;;;;;;5004865;28;20175;-74
2020/12/23 08:05:12;;;;;;;4.13;2.53;;;11.40;99.90;;;;;;5006027;28;20575;-73
2020/12/23 08:07:39;;;;;;;2.60;1.85;;;11.30;99.90;;;;;;5001558;28;20402;-74
2020/12/23 08:10:16;;;;;;;5.95;2.17;;;11.30;99.90;;;;;;5004239;28;20253;-73
2020/12/23 08:12:49;;;;;;;4.68;2.10;;;11.30;99.90;;;;;;5003771;28;20233;-74
2020/12/23 08:15:15;;;;;;;3.55;2.00;;;11.30;99.90;;;;;;5005008;28;20216;-74
2020/12/23 08:17:41;;;;;;;2.70;1.90;;;11.30;99.90;;;;;;5005206;28;20203;-74
2020/12/23 08:20:15;;;;;;;4.18;2.40;;;11.30;99.90;;;;;;4999431;28;20297;-74
2020/12/23 08:22:43;;;;;;;3.00;1.95;;;11.30;99.90;;;;;;5005302;28;20345;-74
2020/12/23 08:25:15;;;;;;;4.32;2.10;;;11.30;99.90;;;;;;5013151;28;20190;-74
2020/12/23 08:27:46;;;;;;;3.33;1.92;;;11.20;99.90;;;;;;5013013;28;20203;-74
2020/12/23 08:30:17;;;;;;;2.65;1.90;;;11.20;99.90;;;;;;5017638;28;20174;-78
2020/12/23 08:32:44;;;;;;;2.45;1.50;;;11.40;99.90;;;;;;5016598;28;20181;-73
2020/12/23 08:35:10;;;;;;;6.88;2.60;;;11.30;99.90;;;;;;5017183;28;20190;-74
2020/12/23 08:37:36;;;;;;;2.80;1.48;;;11.30;99.90;;;;;;5017118;28;20179;-74
2020/12/23 08:40:04;;;;;;;2.33;1.65;;;11.30;99.90;;;;;;5017364;28;20229;-74
2020/12/23 08:42:30;;;;;;;5.03;1.63;;;11.40;99.90;;;;;;5016770;28;20277;-75
2020/12/23 08:44:56;;;;;;;9.23;2.00;;;11.40;99.90;;;;;;5009403;28;20708;-74
2020/12/23 08:47:27;;;;;;;1.70;1.50;;;11.40;99.90;;;;;;5006710;28;20175;-73
2020/12/23 08:49:54;;;;;;;2.45;1.60;;;11.40;99.90;;;;;;5005918;28;20195;-74
2020/12/23 08:52:22;;;;;;;2.28;1.83;;;11.40;99.90;;;;;;5006525;28;20202;-75
2020/12/23 08:54:49;;;;;;;3.55;1.45;;;11.40;99.90;;;;;;5007313;28;20183;-73
2020/12/23 08:57:27;;;;;;;2.75;1.90;;;11.50;99.90;;;;;;5005662;28;20270;-74
2020/12/23 08:59:55;;;;;;;2.60;1.50;;;11.40;99.90;;;;;;5004947;28;20211;-74
2020/12/23 09:02:22;;;;;;;1.73;1.38;;;11.50;99.90;;;;;;5007356;28;20277;-74
2020/12/23 09:04:47;;;;;;;2.00;1.70;;;11.50;99.90;;;;;;5007317;28;20182;-74
2020/12/23 09:07:20;;;;;;;2.50;1.60;;;11.60;99.90;;;;;;5002130;28;20254;-73
2020/12/23 09:09:46;;;;;;;1.52;1.30;;;11.70;99.90;;;;;;4999448;28;20414;-75
2020/12/23 09:12:21;;;;;;;2.25;1.40;;;11.70;99.90;;;;;;5007024;28;20211;-74
2020/12/23 09:14:47;;;;;;;1.50;1.33;;;11.70;99.90;;;;;;5004589;28;20171;-75
2020/12/23 09:17:22;;;;;;;1.50;1.23;;;11.80;99.90;;;;;;5006468;28;20254;-75
2020/12/23 09:19:53;;;;;;;3.10;1.65;;;11.90;99.90;;;;;;5005641;28;20627;-75
2020/12/23 09:22:28;;;;;;;2.25;1.50;;;11.90;99.90;;;;;;5007755;28;20208;-75
2020/12/23 09:25:11;;;;;;;2.45;1.52;;;12.00;99.90;;;;;;5004116;28;20182;-74
2020/12/23 09:27:36;;;;;;;3.30;1.55;;;12.10;99.90;;;;;;5005303;28;20175;-75
2020/12/23 09:30:02;;;;;;;2.87;1.37;;;12.10;99.90;;;;;;5007514;28;20179;-75
2020/12/23 09:32:28;;;;;;;2.50;1.10;;;12.10;99.90;;;;;;5003526;28;20652;-74
2020/12/23 09:35:11;;;;;;;1.30;1.03;;;12.20;99.90;;;;;;5006911;28;20414;-74
2020/12/23 09:37:37;;;;;;;2.30;1.35;;;12.30;99.90;;;;;;5007640;28;20251;-75
2020/12/23 09:40:05;;;;;;;1.27;1.00;;;12.30;99.90;;;;;;5014994;28;20698;-75
2020/12/23 09:42:34;;;;;;;3.30;1.77;;;12.40;99.90;;;;;;5011789;28;20286;-74
2020/12/23 09:44:59;;;;;;;2.75;1.30;;;12.50;99.90;;;;;;5011254;28;20195;-74
2020/12/23 09:47:25;;;;;;;1.20;1.00;;;12.50;99.90;;;;;;5013188;28;20848;-74
2020/12/23 09:49:50;;;;;;;6.67;5.30;;;12.50;99.90;;;;;;5013568;28;20269;-75
2020/12/23 09:52:16;;;;;;;4.30;2.20;;;12.50;99.90;;;;;;5013591;28;20208;-74
2020/12/23 09:54:42;;;;;;;1.03;0.90;;;12.50;99.90;;;;;;5014366;28;20198;-74
2020/12/23 09:57:07;;;;;;;1.67;1.20;;;12.60;99.90;;;;;;5012959;28;20240;-74
2020/12/23 09:59:33;;;;;;;2.70;1.30;;;12.60;99.90;;;;;;5014120;28;20213;-73
2020/12/23 10:01:58;;;;;;;6.70;1.00;;;12.60;99.90;;;;;;5013034;28;20558;-76
2020/12/23 10:04:24;;;;;;;1.97;1.20;;;12.60;99.90;;;;;;5013513;28;20710;-73
2020/12/23 10:06:49;;;;;;;1.90;1.50;;;12.60;99.90;;;;;;5013594;28;20197;-75
2020/12/23 10:09:15;;;;;;;2.33;1.40;;;12.50;99.90;;;;;;5013582;28;20187;-74
2020/12/23 10:11:40;;;;;;;1.67;1.20;;;12.40;99.90;;;;;;5012803;28;20257;-73
2020/12/23 10:14:06;;;;;;;3.13;1.30;;;12.40;99.90;;;;;;5012766;28;20190;-74
2020/12/23 10:16:33;;;;;;;2.20;1.40;;;12.40;99.90;;;;;;5013656;28;20229;-74
2020/12/23 10:18:59;;;;;;;1.77;1.25;;;12.40;99.90;;;;;;5012517;28;20261;-74
2020/12/23 10:21:25;;;;;;;2.27;1.10;;;12.40;99.90;;;;;;5013052;28;20653;-76
2020/12/23 10:23:50;;;;;;;1.23;1.10;;;12.30;99.90;;;;;;5012374;28;20838;-73
2020/12/23 10:26:16;;;;;;;1.23;1.10;;;12.40;99.90;;;;;;5013552;28;20812;-74
2020/12/23 10:28:42;;;;;;;2.13;1.20;;;12.30;99.90;;;;;;5011899;28;20691;-74
2020/12/23 10:31:07;;;;;;;2.70;1.33;;;12.40;99.90;;;;;;5013007;28;20202;-74
2020/12/23 10:33:34;;;;;;;1.47;1.37;;;12.30;99.90;;;;;;5012491;28;20186;-74
2020/12/23 10:36:06;;;;;;;1.58;1.40;;;12.30;99.90;;;;;;5012448;28;20193;-74
2020/12/23 10:38:33;;;;;;;2.28;1.63;;;12.40;99.90;;;;;;5012769;28;20659;-74
2020/12/23 10:40:58;;;;;;;2.47;1.50;;;12.40;99.90;;;;;;5013245;28;20202;-74
2020/12/23 10:43:24;;;;;;;2.90;1.43;;;12.40;99.90;;;;;;5011428;28;20183;-74
2020/12/23 10:45:50;;;;;;;1.20;1.07;;;12.40;99.90;;;;;;5011495;28;20691;-74
2020/12/23 10:48:16;;;;;;;3.20;1.27;;;12.40;99.90;;;;;;5012285;28;20450;-74
2020/12/23 10:50:43;;;;;;;6.03;1.75;;;12.30;99.90;;;;;;5012390;28;20209;-73
2020/12/23 10:53:09;;;;;;;2.50;1.38;;;12.40;99.90;;;;;;5011194;28;20278;-73
2020/12/23 10:55:34;;;;;;;1.80;1.60;;;12.40;99.90;;;;;;5012616;28;20619;-74
2020/12/23 10:58:00;;;;;;;2.47;1.43;;;12.30;99.90;;;;;;5011933;28;20186;-73
2020/12/23 11:00:25;;;;;;;2.67;1.50;;;12.30;99.90;;;;;;5012740;28;20210;-74
2020/12/23 11:02:51;;;;;;;2.93;1.80;;;12.30;99.90;;;;;;5011935;28;20189;-73
2020/12/23 11:05:17;;;;;;;2.80;1.73;;;12.30;99.90;;;;;;5012044;28;20175;-73
2020/12/23 11:07:43;;;;;;;1.90;1.20;;;12.10;99.90;;;;;;5012040;28;20175;-74
2020/12/23 11:10:09;;;;;;;2.70;1.30;;;12.10;99.90;;;;;;5012638;28;20690;-73
2020/12/23 11:12:35;;;;;;;2.65;1.90;;;12.10;99.90;;;;;;5011343;28;20195;-77
2020/12/23 11:15:00;;;;;;;4.20;1.30;;;12.10;99.90;;;;;;5012164;28;20202;-74
2020/12/23 11:17:26;;;;;;;2.37;1.60;;;12.10;99.90;;;;;;5012396;28;20250;-74
2020/12/23 11:19:54;;;;;;;2.10;1.23;;;12.20;99.90;;;;;;5011443;28;20211;-73
2020/12/23 11:22:20;;;;;;;2.72;1.50;;;12.20;99.90;;;;;;5012403;28;20714;-74
2020/12/23 11:24:46;;;;;;;1.60;1.23;;;12.20;99.90;;;;;;5011544;28;20187;-74
2020/12/23 11:27:12;;;;;;;1.73;1.47;;;12.20;99.90;;;;;;5011549;28;20189;-73
2020/12/23 11:29:37;;;;;;;1.50;1.30;;;12.20;99.90;;;;;;5011370;28;20448;-74
2020/12/23 11:32:03;;;;;;;3.90;1.90;;;12.20;99.90;;;;;;5011839;28;20214;-78
2020/12/23 11:34:28;;;;;;;4.10;1.87;;;12.20;99.90;;;;;;5011143;28;20554;-74
2020/12/23 11:36:59;;;;;;;2.70;2.13;;;12.20;99.90;;;;;;5010879;28;20419;-73
2020/12/23 11:39:24;;;;;;;2.55;1.55;;;12.30;99.90;;;;;;5011987;28;20496;-74
2020/12/23 11:41:56;;;;;;;2.73;1.63;;;12.20;99.90;;;;;;5011056;28;20237;-74
2020/12/23 11:44:23;;;;;;;3.22;2.20;;;12.20;99.90;;;;;;5011147;28;20588;-77
2020/12/23 11:46:49;;;;;;;1.70;1.45;;;12.30;99.90;;;;;;5010537;28;20195;-75
2020/12/23 11:49:15;;;;;;;2.55;1.85;;;12.40;99.90;;;;;;5010892;28;20191;-74
2020/12/23 11:51:40;;;;;;;2.33;2.13;;;12.40;99.90;;;;;;5011756;28;20262;-74
2020/12/23 11:54:07;;;;;;;2.53;1.90;;;12.30;99.90;;;;;;5011008;28;20221;-74
2020/12/23 11:56:33;;;;;;;3.08;2.10;;;12.30;99.90;;;;;;5010791;28;20185;-76
2020/12/23 11:58:59;;;;;;;7.13;2.05;;;12.30;99.90;;;;;;5010733;28;20214;-74
2020/12/23 12:01:24;;;;;;;4.70;2.03;;;12.30;99.90;;;;;;5011948;28;20208;-75
2020/12/23 12:03:50;;;;;;;3.87;2.50;;;12.30;99.90;;;;;;5009941;28;20236;-74
2020/12/23 12:06:20;;;;;;;5.73;2.10;;;12.30;99.90;;;;;;5011828;28;20187;-74
2020/12/23 12:08:45;;;;;;;6.32;2.13;;;12.20;99.90;;;;;;5011096;28;20268;-74
2020/12/23 12:11:15;;;;;;;2.97;2.13;;;12.30;99.90;;;;;;5011168;28;20694;-74
2020/12/23 12:13:40;;;;;;;5.88;2.17;;;12.20;99.90;;;;;;5010519;28;20179;-75
2020/12/23 12:16:06;;;;;;;4.20;2.27;;;12.20;99.90;;;;;;5011531;28;20280;-76
2020/12/23 12:18:31;;;;;;;3.83;2.70;;;12.20;99.90;;;;;;5010452;28;20261;-74
2020/12/23 12:20:57;;;;;;;3.90;2.20;;;12.20;99.90;;;;;;5011762;28;20199;-75
2020/12/23 12:23:28;;;;;;;3.10;2.43;;;12.20;99.90;;;;;;5011058;28;20182;-74
2020/12/23 12:25:54;;;;;;;3.73;2.50;;;12.30;99.90;;;;;;5010758;28;20729;-75
2020/12/23 12:28:19;;;;;;;8.80;2.57;;;12.20;99.90;;;;;;5011126;28;20437;-73
2020/12/23 12:30:45;;;;;;;4.07;2.70;;;12.30;99.90;;;;;;5010907;28;20209;-75
2020/12/23 12:33:15;;;;;;;2.20;2.00;;;12.30;99.90;;;;;;5010404;28;20388;-77
2020/12/23 12:35:42;;;;;;;3.65;2.45;;;12.30;99.90;;;;;;5011765;28;20185;-74
2020/12/23 12:38:07;;;;;;;5.07;2.17;;;12.30;99.90;;;;;;5010834;28;20195;-74
2020/12/23 12:40:33;;;;;;;3.90;2.17;;;12.20;99.90;;;;;;5010673;28;20257;-76
2020/12/23 12:43:02;;;;;;;5.43;2.20;;;12.10;99.90;;;;;;5010976;28;20183;-75
2020/12/23 12:45:31;;;;;;;8.13;4.43;;;12.10;99.90;;;;;;5010876;28;20191;-74